Cache, Illinois
Current Conditions -  °F | °C
As of 11:55 PM on Wednesday 17 Dec 2014 (Local Time) from KCIR Reporting Station
Moderate Rain Moderate Rain  
Wind Chill: 39°   Ceiling: 4500
Heat Index: 39°   Visibility: 7mi
Dew Point: 30°   Wind: 0mph
Humidity: 70%   Direction: NA
Pressure: 30.31"   Gusts: NA
Location:  37.1°N, 89.26°W
Report Text: KCIR 180555Z AUTO 00000KT 7SM RA SCT039 OVC045 04/M01 A3031 RMK AO2 T00411010 10041 20032 400550002
Loading
Personal Weather Stations






























Interactive Weather Map New forecast layout! Learn more

10-Day Weather Forecast

Advertisements
Track Severe Weather on mobile